Time;durP1;ratioP1;P1;durP2;ratioP2;P2;SDS_P1;SDS_P2;PMS_P1;PMS_P2;Temp;Humidity;BMP_temperature;BMP_pressure;BME280_temperature;BME280_humidity;BME280_pressure;Samples;Min_cycle;Max_cycle;Signal;HPM_P1;HPM_P2
2023/06/20 00:02:16;;;;;;;3.55;1.88;;;21.30;92.90;;;;;;5028876;28;20041;-71
2023/06/20 00:04:42;;;;;;;6.93;2.58;;;21.30;93.00;;;;;;5027340;28;20041;-72
2023/06/20 00:07:08;;;;;;;3.65;2.08;;;21.30;92.90;;;;;;5011225;28;20108;-72
2023/06/20 00:09:34;;;;;;;6.50;2.00;;;21.30;92.90;;;;;;5009815;28;20029;-74
2023/06/20 00:11:59;;;;;;;5.47;2.42;;;21.20;92.90;;;;;;5010523;28;20056;-72
2023/06/20 00:14:25;;;;;;;5.57;1.98;;;21.20;92.90;;;;;;5010834;28;20445;-72
2023/06/20 00:16:50;;;;;;;6.45;2.80;;;21.20;92.90;;;;;;5028069;28;20033;-72
2023/06/20 00:19:16;;;;;;;4.20;1.77;;;21.20;93.20;;;;;;5028956;28;20405;-72
2023/06/20 00:21:42;;;;;;;4.93;2.53;;;21.30;92.70;;;;;;5009792;28;20083;-71
2023/06/20 00:24:09;;;;;;;3.85;2.28;;;21.30;92.70;;;;;;5028702;28;20029;-72
2023/06/20 00:26:38;;;;;;;6.20;2.03;;;21.30;92.80;;;;;;5027417;28;20037;-73
2023/06/20 00:29:04;;;;;;;4.80;1.98;;;21.30;92.80;;;;;;5028412;28;20106;-72
2023/06/20 00:31:29;;;;;;;4.00;2.45;;;21.20;92.80;;;;;;5009831;28;20037;-75
2023/06/20 00:33:55;;;;;;;4.90;1.90;;;21.20;92.90;;;;;;5010204;28;20056;-72
2023/06/20 00:36:26;;;;;;;5.57;2.33;;;21.20;93.30;;;;;;5010581;28;20052;-72
2023/06/20 00:38:54;;;;;;;3.22;2.03;;;21.20;93.10;;;;;;5008343;28;20037;-72
2023/06/20 00:41:20;;;;;;;5.60;2.38;;;21.20;93.20;;;;;;5028204;28;20037;-72
2023/06/20 00:43:48;;;;;;;5.68;2.22;;;21.20;93.30;;;;;;5009476;28;20033;-72
2023/06/20 00:46:17;;;;;;;6.03;1.67;;;21.30;93.20;;;;;;5028280;28;20041;-72
2023/06/20 00:48:43;;;;;;;8.32;2.47;;;21.20;93.30;;;;;;5026451;28;20037;-72
2023/06/20 00:51:09;;;;;;;3.40;1.92;;;21.20;93.40;;;;;;5027874;28;20057;-72
2023/06/20 00:53:35;;;;;;;5.32;2.38;;;21.20;93.40;;;;;;5009082;28;20172;-72
2023/06/20 00:56:00;;;;;;;3.83;2.08;;;21.20;93.30;;;;;;5028009;28;20124;-72
2023/06/20 00:58:26;;;;;;;5.40;2.38;;;21.10;93.40;;;;;;5027758;28;20036;-72
2023/06/20 01:00:51;;;;;;;4.60;2.53;;;21.10;93.50;;;;;;5008703;28;20063;-71
2023/06/20 01:03:18;;;;;;;6.38;2.15;;;21.10;93.50;;;;;;5027747;28;20053;-72
2023/06/20 01:05:51;;;;;;;3.90;2.03;;;21.20;93.40;;;;;;5026697;28;20038;-72
2023/06/20 01:08:57;;;;;;;5.07;2.05;;;21.20;93.20;;;;;;5010185;28;20049;-71
2023/06/20 01:11:35;;;;;;;5.57;2.00;;;21.20;93.10;;;;;;4989442;28;20396;-72
2023/06/20 01:14:27;;;;;;;3.60;2.13;;;21.20;93.10;;;;;;5027302;28;20065;-71
2023/06/20 01:17:09;;;;;;;4.00;1.77;;;21.20;93.00;;;;;;4989446;28;20042;-73
2023/06/20 01:20:08;;;;;;;7.18;2.22;;;21.20;93.20;;;;;;5025995;28;20022;-73
2023/06/20 01:23:29;;;;;;;3.50;1.95;;;21.20;93.10;;;;;;5026058;28;20033;-72
2023/06/20 01:26:05;;;;;;;4.85;1.83;;;21.20;93.20;;;;;;4964736;28;20053;-73
2023/06/20 01:28:52;;;;;;;7.35;2.38;;;21.10;93.30;;;;;;4998978;28;20061;-73
2023/06/20 01:31:32;;;;;;;4.15;2.28;;;21.20;93.30;;;;;;5026435;28;20040;-72
2023/06/20 01:34:03;;;;;;;4.30;2.28;;;21.10;93.20;;;;;;5027106;28;20041;-72
2023/06/20 01:36:34;;;;;;;5.82;2.17;;;21.20;93.10;;;;;;5009539;28;20560;-74
2023/06/20 01:39:05;;;;;;;2.85;1.80;;;21.20;93.10;;;;;;5009169;28;20037;-72
2023/06/20 01:41:34;;;;;;;4.68;2.25;;;21.20;93.10;;;;;;5008095;28;20513;-75
2023/06/20 01:44:03;;;;;;;5.28;2.58;;;21.10;93.10;;;;;;5027072;28;20050;-71
2023/06/20 01:46:32;;;;;;;4.38;2.08;;;21.20;93.20;;;;;;5027563;28;20128;-72
2023/06/20 01:48:59;;;;;;;5.53;2.22;;;21.20;93.10;;;;;;5026903;28;20129;-71
2023/06/20 01:51:26;;;;;;;4.45;2.30;;;21.10;93.20;;;;;;5033399;28;20438;-72
2023/06/20 01:53:53;;;;;;;4.78;2.22;;;21.00;93.40;;;;;;5015125;28;20466;-74
2023/06/20 01:56:20;;;;;;;6.75;1.95;;;21.10;93.40;;;;;;5035679;28;20051;-71
2023/06/20 01:58:48;;;;;;;5.25;2.50;;;21.00;93.40;;;;;;5014573;28;20076;-72
2023/06/20 02:01:15;;;;;;;5.35;2.25;;;21.10;93.40;;;;;;5015675;28;20048;-72
2023/06/20 02:03:41;;;;;;;4.57;2.30;;;21.00;93.50;;;;;;5033050;28;20156;-71
2023/06/20 02:06:09;;;;;;;5.88;2.35;;;21.00;93.50;;;;;;5016337;28;20064;-72
2023/06/20 02:08:37;;;;;;;6.80;2.33;;;21.00;93.50;;;;;;5015514;28;20036;-73
2023/06/20 02:11:04;;;;;;;7.95;2.38;;;21.00;93.40;;;;;;5012153;28;20033;-72
2023/06/20 02:13:30;;;;;;;5.43;2.22;;;20.90;93.40;;;;;;5015585;28;20033;-74
2023/06/20 02:15:57;;;;;;;6.15;2.92;;;20.90;93.50;;;;;;5033378;28;20030;-73
2023/06/20 02:18:23;;;;;;;6.35;2.55;;;20.90;93.60;;;;;;5033593;28;20033;-72
2023/06/20 02:20:52;;;;;;;5.75;2.38;;;20.90;93.60;;;;;;5014254;28;20235;-74
2023/06/20 02:23:27;;;;;;;4.97;2.22;;;20.90;93.40;;;;;;5033497;28;20040;-72
2023/06/20 02:26:01;;;;;;;9.10;2.70;;;20.90;93.40;;;;;;5014659;28;20072;-72
2023/06/20 02:28:28;;;;;;;4.07;2.20;;;20.90;93.50;;;;;;5015519;28;20025;-71
2023/06/20 02:30:55;;;;;;;5.78;2.45;;;20.90;93.50;;;;;;5014129;28;20124;-70
2023/06/20 02:33:22;;;;;;;3.08;2.15;;;20.90;93.60;;;;;;5015730;28;20072;-74
2023/06/20 02:35:50;;;;;;;4.88;2.42;;;20.90;93.60;;;;;;5014277;28;20033;-72
2023/06/20 02:38:16;;;;;;;4.80;2.22;;;20.90;93.60;;;;;;5033347;28;20053;-72
2023/06/20 02:40:41;;;;;;;5.68;2.22;;;20.90;93.50;;;;;;5014349;28;20057;-74
2023/06/20 02:43:08;;;;;;;4.75;2.22;;;20.90;93.50;;;;;;5033498;28;20045;-73
2023/06/20 02:45:35;;;;;;;6.03;2.30;;;20.90;93.50;;;;;;5032446;28;20036;-72
2023/06/20 02:48:00;;;;;;;3.65;2.28;;;20.90;93.50;;;;;;5011421;28;20060;-72
2023/06/20 02:50:41;;;;;;;8.00;3.42;;;20.90;93.50;;;;;;5033191;28;20045;-72
2023/06/20 02:53:26;;;;;;;5.72;2.50;;;20.90;93.60;;;;;;5011320;28;20436;-72
2023/06/20 02:56:01;;;;;;;5.28;2.63;;;20.90;93.40;;;;;;5032668;28;20768;-73
2023/06/20 02:58:28;;;;;;;7.07;2.40;;;20.90;93.40;;;;;;5014866;28;20036;-72
2023/06/20 03:00:54;;;;;;;5.13;2.40;;;20.90;93.40;;;;;;5012775;28;20038;-72
2023/06/20 03:03:27;;;;;;;5.85;2.95;;;20.80;93.50;;;;;;5011874;28;20041;-73
2023/06/20 03:05:59;;;;;;;6.47;2.60;;;20.80;93.40;;;;;;5028116;28;20494;-72
2023/06/20 03:08:31;;;;;;;3.70;2.40;;;20.80;93.60;;;;;;5029575;28;20033;-72
2023/06/20 03:10:57;;;;;;;5.28;2.20;;;20.80;93.60;;;;;;5011091;28;20038;-72
2023/06/20 03:13:24;;;;;;;5.15;2.42;;;20.80;93.50;;;;;;5029899;28;20120;-72
2023/06/20 03:15:49;;;;;;;6.68;2.53;;;20.80;93.50;;;;;;5011291;28;20059;-71
2023/06/20 03:18:17;;;;;;;4.97;2.13;;;20.80;93.60;;;;;;5029723;28;20497;-73
2023/06/20 03:20:44;;;;;;;6.38;3.10;;;20.90;93.70;;;;;;5010495;28;20041;-72
2023/06/20 03:23:09;;;;;;;6.07;2.92;;;20.80;93.50;;;;;;5012167;28;20560;-72
2023/06/20 03:25:35;;;;;;;5.07;2.20;;;20.80;93.50;;;;;;5010452;28;20658;-72
2023/06/20 03:28:00;;;;;;;6.47;2.47;;;20.90;93.50;;;;;;5011642;28;20037;-72
2023/06/20 03:30:26;;;;;;;5.03;2.58;;;20.80;93.50;;;;;;5029188;28;20444;-72
2023/06/20 03:32:51;;;;;;;7.50;2.42;;;20.70;93.60;;;;;;5028325;28;20037;-72
2023/06/20 03:35:17;;;;;;;5.70;2.13;;;20.80;93.70;;;;;;5029206;28;20037;-72
2023/06/20 03:37:42;;;;;;;6.28;2.70;;;20.80;93.70;;;;;;5010689;28;20063;-71
2023/06/20 03:40:09;;;;;;;7.25;2.78;;;20.70;93.70;;;;;;5010831;28;20684;-72
2023/06/20 03:42:34;;;;;;;4.70;2.22;;;20.70;93.80;;;;;;5028061;28;20030;-71
2023/06/20 03:45:00;;;;;;;4.82;2.38;;;20.70;93.90;;;;;;5011391;28;20513;-71
2023/06/20 03:47:25;;;;;;;4.03;2.30;;;20.70;93.80;;;;;;5011300;28;20042;-73
2023/06/20 03:49:51;;;;;;;7.50;2.80;;;20.80;93.90;;;;;;5027872;28;20351;-71
2023/06/20 03:52:17;;;;;;;4.95;2.65;;;20.80;93.80;;;;;;5010801;28;20437;-72
2023/06/20 03:54:42;;;;;;;7.07;2.70;;;20.80;93.80;;;;;;5010087;28;20736;-72
2023/06/20 03:57:08;;;;;;;8.60;3.05;;;20.80;93.70;;;;;;5012522;28;20041;-71
2023/06/20 03:59:34;;;;;;;5.00;2.50;;;20.80;93.80;;;;;;5009807;28;20034;-72
2023/06/20 04:01:59;;;;;;;7.47;2.75;;;20.80;93.90;;;;;;5028863;28;20045;-71
2023/06/20 04:04:25;;;;;;;4.38;2.65;;;20.80;93.90;;;;;;5011790;28;20104;-71
2023/06/20 04:06:50;;;;;;;5.90;2.67;;;20.80;93.90;;;;;;5010034;28;20653;-71
2023/06/20 04:09:19;;;;;;;6.30;2.50;;;20.80;93.90;;;;;;5028614;28;20526;-70
2023/06/20 04:11:45;;;;;;;6.78;2.67;;;20.90;94.00;;;;;;5005843;28;20110;-72
2023/06/20 04:14:11;;;;;;;6.50;2.95;;;20.90;93.90;;;;;;5028451;28;20041;-72
2023/06/20 04:16:37;;;;;;;8.10;3.33;;;20.90;94.00;;;;;;5027807;28;20450;-73
2023/06/20 04:19:03;;;;;;;5.32;2.90;;;20.90;94.00;;;;;;5028879;28;20033;-72
2023/06/20 04:21:31;;;;;;;6.03;3.05;;;20.90;94.00;;;;;;5028917;28;20409;-72
2023/06/20 04:23:57;;;;;;;4.90;3.28;;;20.80;94.10;;;;;;5024893;28;20038;-72
2023/06/20 04:26:22;;;;;;;6.20;2.50;;;20.90;94.10;;;;;;5011461;28;20429;-71
2023/06/20 04:28:48;;;;;;;9.05;3.22;;;20.90;94.00;;;;;;5028620;28;20124;-72
2023/06/20 04:31:14;;;;;;;4.13;2.22;;;20.90;94.10;;;;;;5012600;28;20041;-71
2023/06/20 04:33:43;;;;;;;3.97;2.10;;;20.80;94.20;;;;;;5009984;28;20404;-73
2023/06/20 04:36:13;;;;;;;4.45;2.55;;;20.80;94.10;;;;;;5026480;28;20076;-71
2023/06/20 04:38:42;;;;;;;8.57;2.58;;;20.80;94.20;;;;;;5009164;28;20115;-72
2023/06/20 04:41:08;;;;;;;7.80;3.13;;;20.80;94.20;;;;;;5010240;28;20163;-71
2023/06/20 04:43:35;;;;;;;6.90;3.15;;;20.80;94.20;;;;;;5009490;28;20287;-71
2023/06/20 04:46:01;;;;;;;7.32;3.10;;;20.80;94.30;;;;;;5012041;28;20093;-71
2023/06/20 04:48:35;;;;;;;5.05;2.78;;;20.90;94.30;;;;;;5010760;28;20026;-71
2023/06/20 04:51:01;;;;;;;6.38;2.85;;;20.90;94.30;;;;;;5006389;28;20413;-72
2023/06/20 04:53:26;;;;;;;5.07;2.63;;;20.90;94.40;;;;;;5010367;28;20029;-71
2023/06/20 04:55:53;;;;;;;4.45;2.65;;;20.90;94.30;;;;;;5027170;28;20034;-71
2023/06/20 04:58:18;;;;;;;7.25;3.67;;;20.90;94.30;;;;;;5011365;28;20421;-71
2023/06/20 05:00:44;;;;;;;11.52;3.30;;;20.90;94.30;;;;;;5023080;28;20034;-70
2023/06/20 05:03:09;;;;;;;7.50;3.35;;;21.00;94.40;;;;;;5026309;28;20052;-71
2023/06/20 05:05:35;;;;;;;6.22;2.75;;;21.00;94.40;;;;;;5007864;28;20042;-73
2023/06/20 05:08:01;;;;;;;6.95;3.50;;;21.00;94.30;;;;;;5027633;28;20036;-73
2023/06/20 05:10:26;;;;;;;4.85;2.65;;;21.10;94.30;;;;;;5009393;28;20035;-73
2023/06/20 05:12:52;;;;;;;6.30;3.13;;;21.10;94.40;;;;;;5023044;28;20057;-73
2023/06/20 05:15:23;;;;;;;5.20;2.70;;;21.30;94.20;;;;;;5026570;28;20044;-72
2023/06/20 05:17:53;;;;;;;5.82;2.65;;;21.40;94.00;;;;;;5025679;28;20025;-72
2023/06/20 05:20:19;;;;;;;6.47;2.70;;;21.40;93.90;;;;;;5007848;28;20036;-71
2023/06/20 05:22:44;;;;;;;9.35;2.58;;;21.50;93.90;;;;;;5025374;28;20460;-71
2023/06/20 05:25:10;;;;;;;9.68;2.90;;;21.50;93.90;;;;;;5026245;28;20113;-71
2023/06/20 05:27:36;;;;;;;5.13;3.20;;;21.50;93.90;;;;;;5007643;28;20053;-71
2023/06/20 05:30:02;;;;;;;5.18;2.85;;;21.60;93.80;;;;;;5008252;28;20033;-72
2023/06/20 05:32:28;;;;;;;8.07;3.28;;;21.60;93.80;;;;;;5008113;28;20088;-73
2023/06/20 05:34:53;;;;;;;4.63;2.67;;;21.70;93.90;;;;;;5024841;28;20053;-71
2023/06/20 05:37:19;;;;;;;5.60;2.88;;;21.70;93.80;;;;;;5026174;28;20037;-71
2023/06/20 05:39:45;;;;;;;7.43;3.25;;;21.80;93.70;;;;;;5024549;28;20714;-72
2023/06/20 05:42:10;;;;;;;7.00;2.90;;;21.90;93.80;;;;;;5008019;28;20072;-71
2023/06/20 05:44:36;;;;;;;9.05;3.33;;;22.00;93.60;;;;;;5024853;28;20095;-72
2023/06/20 05:47:06;;;;;;;6.95;3.13;;;22.00;93.60;;;;;;5008352;28;20448;-72
2023/06/20 05:49:32;;;;;;;5.50;2.87;;;22.10;93.50;;;;;;5006810;28;20117;-72
2023/06/20 05:51:58;;;;;;;6.03;2.80;;;22.30;93.30;;;;;;5007891;28;20317;-72
2023/06/20 05:54:24;;;;;;;24.90;3.65;;;22.40;93.30;;;;;;5008352;28;20033;-71
2023/06/20 05:56:50;;;;;;;9.27;3.60;;;22.60;92.90;;;;;;5006032;28;20038;-71
2023/06/20 05:59:16;;;;;;;7.50;3.35;;;22.70;92.60;;;;;;5008003;28;20037;-71
2023/06/20 06:01:41;;;;;;;6.22;3.17;;;22.90;92.60;;;;;;5023941;28;20532;-71
2023/06/20 06:04:07;;;;;;;7.07;4.15;;;23.00;92.60;;;;;;5010209;28;20046;-72
2023/06/20 06:06:33;;;;;;;8.40;3.78;;;23.10;92.30;;;;;;5024432;28;20041;-70
2023/06/20 06:08:58;;;;;;;7.72;3.03;;;23.00;92.30;;;;;;5007653;28;20467;-72
2023/06/20 06:11:25;;;;;;;5.43;3.33;;;23.10;92.30;;;;;;5025484;28;20061;-71
2023/06/20 06:13:51;;;;;;;7.65;3.30;;;23.20;92.10;;;;;;5024601;28;20040;-71
2023/06/20 06:16:17;;;;;;;8.13;3.33;;;23.20;92.20;;;;;;5007619;28;21325;-72
2023/06/20 06:18:43;;;;;;;6.63;3.33;;;23.30;92.00;;;;;;5024360;28;20033;-72
2023/06/20 06:21:09;;;;;;;10.05;3.65;;;23.40;92.10;;;;;;5025596;28;20397;-72
2023/06/20 06:23:34;;;;;;;7.90;3.30;;;23.40;92.10;;;;;;5024180;28;20065;-72
2023/06/20 06:26:00;;;;;;;6.88;2.95;;;23.60;92.00;;;;;;5007323;28;20615;-72
2023/06/20 06:28:28;;;;;;;12.82;3.85;;;23.60;92.10;;;;;;5025702;28;20113;-73
2023/06/20 06:31:26;;;;;;;8.68;3.08;;;23.70;91.90;;;;;;5024241;28;20025;-71
2023/06/20 06:33:54;;;;;;;6.60;3.55;;;23.80;92.00;;;;;;5024263;28;24676;-73
2023/06/20 06:36:21;;;;;;;6.10;3.53;;;24.00;91.90;;;;;;5004651;28;20109;-71
2023/06/20 06:38:49;;;;;;;5.53;3.22;;;24.00;91.90;;;;;;5026937;28;20041;-71
2023/06/20 06:41:18;;;;;;;6.70;3.00;;;24.00;91.70;;;;;;5028883;28;20021;-72
2023/06/20 06:43:44;;;;;;;8.57;3.45;;;24.00;91.80;;;;;;5027824;28;20041;-72
2023/06/20 06:46:10;;;;;;;6.32;3.33;;;24.00;91.70;;;;;;5028883;28;20041;-72
2023/06/20 06:48:35;;;;;;;6.22;3.67;;;24.00;91.70;;;;;;5026565;28;20044;-72
2023/06/20 06:51:02;;;;;;;6.35;3.80;;;24.00;91.70;;;;;;5009635;28;20033;-71
2023/06/20 06:53:28;;;;;;;6.35;3.70;;;23.90;91.70;;;;;;5011167;28;20033;-71
2023/06/20 06:55:54;;;;;;;7.35;4.05;;;24.00;92.00;;;;;;5010326;28;20097;-73
2023/06/20 06:58:19;;;;;;;6.15;3.78;;;24.00;91.90;;;;;;5030792;28;20043;-72
2023/06/20 07:00:45;;;;;;;11.23;3.55;;;24.30;92.00;;;;;;5009441;28;20557;-72
2023/06/20 07:03:11;;;;;;;9.98;4.18;;;24.50;92.00;;;;;;5028287;28;20051;-72
2023/06/20 07:05:37;;;;;;;10.07;4.18;;;24.60;91.20;;;;;;5029318;28;20073;-74
2023/06/20 07:08:02;;;;;;;5.65;3.65;;;24.70;91.30;;;;;;5028623;28;20033;-73
2023/06/20 07:10:28;;;;;;;5.80;2.90;;;24.80;91.40;;;;;;5010616;28;20482;-71
2023/06/20 07:12:54;;;;;;;9.57;3.83;;;25.00;91.40;;;;;;5027090;28;20632;-71
2023/06/20 07:15:19;;;;;;;7.60;4.05;;;25.30;91.10;;;;;;5010386;28;20025;-71
2023/06/20 07:17:45;;;;;;;7.57;3.53;;;25.40;91.00;;;;;;5008024;28;20088;-72
2023/06/20 07:20:11;;;;;;;9.88;3.72;;;25.50;90.80;;;;;;5010234;28;20825;-72
2023/06/20 07:22:37;;;;;;;6.80;3.75;;;25.50;90.80;;;;;;5025398;28;20399;-73
2023/06/20 07:25:03;;;;;;;10.90;3.75;;;25.60;90.40;;;;;;5008106;28;20140;-73
2023/06/20 07:27:29;;;;;;;8.95;4.25;;;26.00;91.00;;;;;;5028235;28;20115;-72
2023/06/20 07:29:55;;;;;;;15.27;5.03;;;26.90;89.10;;;;;;5009140;28;20033;-72
2023/06/20 07:32:21;;;;;;;10.95;4.80;;;27.60;86.60;;;;;;5010717;28;20045;-73
2023/06/20 07:34:48;;;;;;;8.95;5.13;;;28.00;86.40;;;;;;5009192;28;20042;-72
2023/06/20 07:37:14;;;;;;;12.00;4.95;;;28.70;84.30;;;;;;5026611;28;20073;-73
2023/06/20 07:39:42;;;;;;;7.55;5.15;;;29.40;84.90;;;;;;5008816;28;20287;-72
2023/06/20 07:42:09;;;;;;;12.20;5.72;;;30.40;82.10;;;;;;5027263;28;20060;-72
2023/06/20 07:44:34;;;;;;;10.35;6.07;;;31.20;79.20;;;;;;5026901;28;20052;-72
2023/06/20 07:47:00;;;;;;;9.98;5.50;;;31.80;78.30;;;;;;5027272;28;20433;-73
2023/06/20 07:49:26;;;;;;;13.15;6.75;;;32.00;78.10;;;;;;5009915;28;20041;-73
2023/06/20 07:51:51;;;;;;;8.90;5.78;;;32.50;76.20;;;;;;5026332;28;20049;-72
2023/06/20 07:54:17;;;;;;;7.93;5.88;;;33.00;76.40;;;;;;5027855;28;20486;-73
2023/06/20 07:56:42;;;;;;;7.10;5.45;;;33.20;74.40;;;;;;5024553;28;20723;-73
2023/06/20 07:59:08;;;;;;;14.98;6.28;;;33.10;74.80;;;;;;5028005;28;20469;-73
2023/06/20 08:01:34;;;;;;;8.85;6.93;;;33.40;74.00;;;;;;5026641;28;20449;-73
2023/06/20 08:03:59;;;;;;;15.32;6.35;;;33.40;73.80;;;;;;5028643;28;20554;-73
2023/06/20 08:06:25;;;;;;;10.05;6.50;;;33.10;74.20;;;;;;5028373;28;20052;-73
2023/06/20 08:08:51;;;;;;;10.73;6.15;;;33.00;74.40;;;;;;5030385;28;20257;-72
2023/06/20 08:11:24;;;;;;;15.07;6.32;;;32.80;74.80;;;;;;5014354;28;20063;-73
2023/06/20 08:13:50;;;;;;;7.65;5.88;;;33.00;74.20;;;;;;5014256;28;20033;-73
2023/06/20 08:16:16;;;;;;;8.65;6.50;;;33.20;73.20;;;;;;5031990;28;20047;-73
2023/06/20 08:18:41;;;;;;;10.07;6.97;;;33.20;73.20;;;;;;5024451;28;20033;-72
2023/06/20 08:21:07;;;;;;;10.27;7.10;;;32.90;72.90;;;;;;5027369;28;20140;-72
2023/06/20 08:23:33;;;;;;;7.07;5.03;;;32.50;73.90;;;;;;5025953;28;20048;-72
2023/06/20 08:25:59;;;;;;;8.18;4.60;;;32.10;75.40;;;;;;5009172;28;20045;-73
2023/06/20 08:28:24;;;;;;;6.97;4.40;;;31.80;74.80;;;;;;5009381;28;20033;-72
2023/06/20 08:30:51;;;;;;;7.35;3.95;;;31.30;76.10;;;;;;5025673;28;20493;-72
2023/06/20 08:33:19;;;;;;;8.32;4.43;;;31.20;76.70;;;;;;5009723;28;20029;-73
2023/06/20 08:35:44;;;;;;;7.03;3.97;;;31.00;78.30;;;;;;5025880;28;20088;-72
2023/06/20 08:38:10;;;;;;;5.35;3.90;;;31.00;78.00;;;;;;5026772;28;20498;-72
2023/06/20 08:40:36;;;;;;;5.63;3.67;;;30.70;78.40;;;;;;5010863;28;20398;-72
2023/06/20 08:43:02;;;;;;;7.22;3.47;;;30.60;79.70;;;;;;5013282;28;20022;-73
2023/06/20 08:45:28;;;;;;;5.90;3.60;;;30.60;79.70;;;;;;5027422;28;20065;-72
2023/06/20 08:47:58;;;;;;;6.07;3.45;;;30.60;80.20;;;;;;5008276;28;20068;-71
2023/06/20 08:50:25;;;;;;;11.18;4.75;;;30.60;79.50;;;;;;5008869;28;20454;-72
2023/06/20 08:52:54;;;;;;;9.85;3.80;;;30.60;80.10;;;;;;5032647;28;20037;-72
2023/06/20 08:55:20;;;;;;;9.38;4.82;;;30.50;80.00;;;;;;5028356;28;20371;-72
2023/06/20 08:57:46;;;;;;;6.07;4.00;;;30.40;79.10;;;;;;5026644;28;20128;-72
2023/06/20 09:00:20;;;;;;;6.85;4.07;;;30.40;79.20;;;;;;5008307;28;20045;-71
2023/06/20 09:02:47;;;;;;;8.02;4.13;;;30.20;80.60;;;;;;5005059;28;20049;-72
2023/06/20 09:05:13;;;;;;;7.63;4.28;;;30.20;80.10;;;;;;5029116;28;20436;-71
2023/06/20 09:07:41;;;;;;;13.90;5.20;;;30.00;80.00;;;;;;5023298;28;20490;-71
2023/06/20 09:10:08;;;;;;;6.35;3.10;;;29.80;80.50;;;;;;5026899;28;20039;-71
2023/06/20 09:12:46;;;;;;;6.70;4.43;;;29.80;81.10;;;;;;5025849;28;20037;-72
2023/06/20 09:15:33;;;;;;;5.85;3.40;;;29.70;81.20;;;;;;5008152;28;20037;-72
2023/06/20 09:18:01;;;;;;;4.43;1.92;;;29.90;80.70;;;;;;5007764;28;20044;-74
2023/06/20 09:20:28;;;;;;;3.97;2.33;;;30.00;79.20;;;;;;5026078;28;20029;-72
2023/06/20 09:22:54;;;;;;;6.20;2.20;;;29.80;79.50;;;;;;5025335;28;20036;-72
2023/06/20 09:25:25;;;;;;;5.20;2.92;;;29.90;80.20;;;;;;5008087;28;20037;-72
2023/06/20 09:27:52;;;;;;;4.03;2.90;;;29.90;80.80;;;;;;5026222;28;20065;-72
2023/06/20 09:30:17;;;;;;;4.05;2.40;;;30.10;79.90;;;;;;5026017;28;20116;-72
2023/06/20 09:32:43;;;;;;;5.35;2.90;;;30.20;79.30;;;;;;5025148;28;20132;-71
2023/06/20 09:35:14;;;;;;;3.17;2.17;;;30.10;79.10;;;;;;5026485;28;20049;-72
2023/06/20 09:37:41;;;;;;;4.10;2.40;;;30.20;77.80;;;;;;5025035;28;20417;-71
2023/06/20 09:40:11;;;;;;;3.03;1.90;;;30.00;78.40;;;;;;5024134;28;20033;-72
2023/06/20 09:42:38;;;;;;;3.88;2.03;;;30.00;79.10;;;;;;5004422;28;20516;-71
2023/06/20 09:45:06;;;;;;;3.42;2.25;;;30.20;78.90;;;;;;5025765;28;20037;-72
2023/06/20 09:47:33;;;;;;;1.98;1.25;;;30.20;80.10;;;;;;5007733;28;20528;-72
2023/06/20 09:50:01;;;;;;;2.22;1.27;;;30.20;77.10;;;;;;5025624;28;20039;-72
2023/06/20 09:52:33;;;;;;;2.72;1.65;;;30.20;78.00;;;;;;5007624;28;20025;-71
2023/06/20 09:55:03;;;;;;;4.25;1.92;;;30.30;78.30;;;;;;5007527;28;20089;-71
2023/06/20 09:57:42;;;;;;;3.22;1.85;;;30.40;78.30;;;;;;5027853;28;20034;-72
2023/06/20 10:00:15;;;;;;;;;;;30.40;78.00;;;;;;5007696;28;20348;-71
2023/06/20 10:02:48;;;;;;;5.05;1.92;;;30.40;79.20;;;;;;5003706;28;19917;-71
2023/06/20 10:05:18;;;;;;;3.28;1.48;;;30.40;79.80;;;;;;5024554;28;20025;-71
2023/06/20 10:07:45;;;;;;;;;;;30.40;79.10;;;;;;5023817;28;20474;-72
2023/06/20 10:10:14;;;;;;;3.47;1.67;;;30.50;79.70;;;;;;5006154;28;19924;-72
2023/06/20 10:12:43;;;;;;;4.55;2.40;;;30.60;79.30;;;;;;5009997;28;20048;-73
2023/06/20 10:15:10;;;;;;;4.13;2.47;;;30.80;80.50;;;;;;5010837;28;20116;-72
2023/06/20 10:17:53;;;;;;;6.50;2.63;;;30.70;79.90;;;;;;5025690;28;20379;-72
2023/06/20 10:20:33;;;;;;;3.83;2.47;;;30.80;81.40;;;;;;5026846;28;20029;-73
2023/06/20 10:23:04;;;;;;;5.55;2.88;;;30.90;81.60;;;;;;5028005;28;20084;-73
2023/06/20 10:25:31;;;;;;;3.92;2.55;;;31.00;80.80;;;;;;5028807;28;20064;-72
2023/06/20 10:28:04;;;;;;;5.47;3.20;;;31.10;79.60;;;;;;5025966;28;20030;-73
2023/06/20 10:30:53;;;;;;;8.45;3.13;;;31.10;79.00;;;;;;5027279;28;20703;-71
2023/06/20 10:33:23;;;;;;;4.57;3.00;;;31.10;79.30;;;;;;5026529;28;20387;-72
2023/06/20 10:36:08;;;;;;;7.60;3.03;;;30.90;79.40;;;;;;5009296;28;20046;-73
2023/06/20 10:38:37;;;;;;;8.02;3.67;;;30.80;80.00;;;;;;5023437;28;20084;-73
2023/06/20 10:41:07;;;;;;;4.40;3.03;;;30.50;81.00;;;;;;5028937;28;20044;-73
2023/06/20 10:44:00;;;;;;;4.28;3.25;;;30.40;82.20;;;;;;5024654;28;20041;-73
2023/06/20 10:46:43;;;;;;;6.38;2.80;;;30.20;81.50;;;;;;5006516;28;20101;-72
2023/06/20 10:49:10;;;;;;;6.47;2.65;;;30.40;82.20;;;;;;5008356;28;20033;-72
2023/06/20 10:51:57;;;;;;;3.03;2.40;;;30.60;81.50;;;;;;5028511;28;20129;-71
2023/06/20 10:54:31;;;;;;;6.13;2.90;;;30.80;81.20;;;;;;5030819;28;20040;-72
2023/06/20 10:56:57;;;;;;;3.83;2.60;;;30.80;81.60;;;;;;5028520;28;20041;-73
2023/06/20 10:59:22;;;;;;;5.10;2.65;;;30.80;81.10;;;;;;5013586;28;20060;-72
2023/06/20 11:01:48;;;;;;;3.90;2.55;;;30.70;80.50;;;;;;5011861;28;20104;-72
2023/06/20 11:04:15;;;;;;;2.83;2.10;;;30.50;81.60;;;;;;5012481;28;20037;-70
2023/06/20 11:06:41;;;;;;;4.15;2.03;;;30.60;82.20;;;;;;5010337;28;20239;-71
2023/06/20 11:09:17;;;;;;;7.43;2.47;;;30.60;81.40;;;;;;5010904;28;20029;-73
2023/06/20 11:11:43;;;;;;;5.45;2.88;;;30.30;82.30;;;;;;5010068;28;20132;-72
2023/06/20 11:14:10;;;;;;;5.22;2.13;;;30.40;81.90;;;;;;5031595;28;20124;-73
2023/06/20 11:16:35;;;;;;;6.00;1.65;;;30.40;81.70;;;;;;5012544;28;20068;-73
2023/06/20 11:19:01;;;;;;;2.80;1.80;;;30.50;81.20;;;;;;5027282;28;20490;-72
2023/06/20 11:21:27;;;;;;;5.13;1.58;;;30.60;80.10;;;;;;5028182;28;20047;-72
2023/06/20 11:24:00;;;;;;;3.33;1.90;;;30.60;80.50;;;;;;5026495;28;20042;-73
2023/06/20 11:26:33;;;;;;;2.83;1.40;;;30.60;81.20;;;;;;5028432;28;20128;-72
2023/06/20 11:28:59;;;;;;;3.08;1.55;;;30.60;80.80;;;;;;5027591;28;20038;-72
2023/06/20 11:31:25;;;;;;;3.33;1.33;;;30.60;81.50;;;;;;5027785;28;20664;-72
2023/06/20 11:34:04;;;;;;;4.70;2.17;;;30.70;80.20;;;;;;5009727;28;20092;-72
2023/06/20 11:36:31;;;;;;;3.45;1.55;;;30.80;80.80;;;;;;5026104;28;20053;-72
2023/06/20 11:39:08;;;;;;;3.05;1.95;;;30.50;81.30;;;;;;5027087;28;20025;-73
2023/06/20 11:41:34;;;;;;;5.80;1.70;;;30.50;81.70;;;;;;5026624;28;20033;-73
2023/06/20 11:44:01;;;;;;;5.22;1.58;;;30.60;81.70;;;;;;5008567;28;20494;-73
2023/06/20 11:46:27;;;;;;;1.92;1.45;;;30.80;81.20;;;;;;5010104;28;20123;-72
2023/06/20 11:48:56;;;;;;;1.83;1.10;;;30.90;78.90;;;;;;5026859;28;20073;-72
2023/06/20 11:51:24;;;;;;;3.78;1.45;;;31.00;79.90;;;;;;5010154;28;20041;-72
2023/06/20 11:54:11;;;;;;;2.55;1.35;;;31.20;79.90;;;;;;5025663;28;20040;-72
2023/06/20 11:56:37;;;;;;;3.00;1.52;;;31.00;79.10;;;;;;5006989;28;20037;-71
2023/06/20 11:59:03;;;;;;;1.80;1.00;;;30.80;79.70;;;;;;5009817;28;20038;-71
2023/06/20 12:01:30;;;;;;;2.00;1.27;;;30.70;80.40;;;;;;5027521;28;20049;-72
2023/06/20 12:04:06;;;;;;;1.92;1.25;;;30.60;80.30;;;;;;5028280;28;20486;-72
2023/06/20 12:06:34;;;;;;;3.70;1.30;;;30.80;81.50;;;;;;5006380;28;20046;-72
2023/06/20 12:09:16;;;;;;;2.40;1.50;;;30.90;81.40;;;;;;5026087;28;20029;-72
2023/06/20 12:11:50;;;;;;;2.65;1.70;;;31.20;81.40;;;;;;5008161;28;20037;-73
2023/06/20 12:14:16;;;;;;;1.88;0.90;;;31.60;81.10;;;;;;5027366;28;20040;-72
2023/06/20 12:16:42;;;;;;;8.57;1.95;;;31.80;80.00;;;;;;5026177;28;20089;-72
2023/06/20 12:19:08;;;;;;;1.83;1.55;;;31.90;79.60;;;;;;5027149;28;20037;-72
2023/06/20 12:21:33;;;;;;;2.47;1.35;;;31.80;78.40;;;;;;5026278;28;20033;-73
2023/06/20 12:24:00;;;;;;;4.32;1.73;;;31.70;79.20;;;;;;5027196;28;20026;-72
2023/06/20 12:26:25;;;;;;;8.13;1.65;;;31.50;79.50;;;;;;5027518;28;20144;-73
2023/06/20 12:28:52;;;;;;;1.48;1.05;;;31.30;79.60;;;;;;5026382;28;20140;-72
2023/06/20 12:31:18;;;;;;;1.95;1.33;;;31.20;80.20;;;;;;5026954;28;20065;-73
2023/06/20 12:33:44;;;;;;;3.33;1.65;;;30.90;79.80;;;;;;5025435;28;20504;-72
2023/06/20 12:36:09;;;;;;;3.58;1.30;;;30.70;80.30;;;;;;5027202;28;20675;-73
2023/06/20 12:38:35;;;;;;;2.47;1.35;;;30.50;81.10;;;;;;5025853;28;20033;-73
2023/06/20 12:41:01;;;;;;;2.40;1.50;;;30.60;80.00;;;;;;5027133;28;20160;-73
2023/06/20 12:43:26;;;;;;;5.80;1.75;;;30.70;78.60;;;;;;5009091;28;20048;-73
2023/06/20 12:46:01;;;;;;;1.92;1.35;;;30.70;80.60;;;;;;5025165;28;20215;-72
2023/06/20 12:48:27;;;;;;;2.17;1.23;;;30.90;80.30;;;;;;5026557;28;20060;-73
2023/06/20 12:50:52;;;;;;;2.92;0.98;;;30.90;79.70;;;;;;5024570;28;22363;-72
2023/06/20 12:53:18;;;;;;;2.00;1.20;;;31.00;79.40;;;;;;5026445;28;20029;-72